Terminal Aerodrome Forecast
Issued by NWS Sioux Falls, SD

Home | Current Version | Previous Version | Text Only | Print | Product List | Glossary Off
Versions: 1 2 3 4 5 6 7 8 9 10 11 12 13 14 15 16 17 18 19

213
FTUS43 KFSD 281213 AAA
TAFFSD
TAF AMD
KFSD 281213Z 2812/2912 04010G16KT P6SM -RA OVC009
     FM281700 04010KT P6SM VCSH OVC014
     FM282000 04010KT P6SM OVC015
     FM290300 06006KT P6SM OVC040
     FM290700 06005KT P6SM OVC025
     FM290800 07004KT P6SM OVC015
     FM291100 06005KT P6SM OVC003=

USA.gov is the U.S. government's official web portal to all federal, state and local government web resources and services.